Falken — SBCH — position and weather

sailwx.info

Track history (hours):
 
Tides and Currents Weather Stations Pressure Air Temp Water Temp Dewpoint Dewpoint Depression Visibility Wind Speed Wind Dir Waves Ship Positions

Falken (Sweden)

Last reported at 2016-Aug-23 17:10 UTC. Time now 2016-Aug-26 23:23 UTC.
Position N 51°30' W 000°01'.

Length 40 m; draft 4.2 m.

Type: Sailing vessel. MMSI: 265070000.

Date/timePositionNaut miles runAvg speedWind from/ knotsBaromVisibWave heightAir tempDewpointWater temp
2016-Aug-23 17:10N 51°30' W 000°01'0 0.6
2016-Aug-23 16:33N 51°30' W 000°01'4 4.2
2016-Aug-23 15:34N 51°31' E 000°06'7 6.9
2016-Aug-23 14:34N 51°28' E 000°16'4 4.4
2016-Aug-23 13:34N 51°27' E 000°23'3 2.6
2016-Aug-23 12:34N 51°28' E 000°27'3 2.6
2016-Aug-23 11:34N 51°30' E 000°30'4 3.6
2016-Aug-23 10:33N 51°30' E 000°36'4 4.4
2016-Aug-23 09:34N 51°30' E 000°43'5 5.3
2016-Aug-23 08:33N 51°29' E 000°51'5 4.9
2016-Aug-23 07:34N 51°29' E 000°59'5 4.6
2016-Aug-23 06:34N 51°30' E 001°06'5 4.5
2016-Aug-23 05:34N 51°29' E 001°13'4 4.4
2016-Aug-23 04:33N 51°29' E 001°20'4 4.5
2016-Aug-23 03:33N 51°30' E 001°27'2 2.0
2016-Aug-23 02:34N 51°31' E 001°30'8 7.7
2016-Aug-23 01:34N 51°35' E 001°40'10 9.5
2016-Aug-23 00:34N 51°44' E 001°44'1110.9
2016-Aug-22 23:34N 51°55' E 001°44'1111.0
2016-Aug-22 22:34N 52°06' E 001°51'149 5.7
2016-Aug-21 20:30N 54°30' E 000°49'24 5.7
2016-Aug-21 16:22N 54°49' E 000°25'5 4.1
2016-Aug-21 15:11N 54°53' E 000°20'158 6.7
2016-Aug-20 15:30N 57°09' W 002°03'1 0.1
2016-Aug-20 02:34N 57°09' W 002°05'0 0.0
2016-Aug-20 01:34N 57°09' W 002°05'0 0.0
2016-Aug-19 09:23N 57°09' W 002°05'5 2.5
2016-Aug-19 07:32N 57°11' W 001°57'1 0.8
2016-Aug-19 06:30N 57°11' W 001°56'4 2.0
2016-Aug-19 04:32N 57°14' W 001°52'2 2.1
2016-Aug-19 03:33N 57°16' W 001°49'13 2.9
2016-Aug-18 23:08N 57°27' W 001°36'3 4.7
2016-Aug-18 22:33N 57°30' W 001°37'4 4.5
2016-Aug-18 21:34N 57°34' W 001°39'15 4.6
2016-Aug-18 18:23N 57°46' W 001°53'50 5.4
2016-Aug-18 09:07N 58°29' W 002°44'5 9.6
2016-Aug-18 08:34N 58°34' W 002°48'1312.8
2016-Aug-18 07:34N 58°45' W 003°01'9 9.0
2016-Aug-18 06:33N 58°53' W 003°07'7 7.3
2016-Aug-18 05:33N 58°58' W 003°18'0 0.0
2016-Aug-18 04:32N 58°58' W 003°18'0 0.0
2016-Aug-18 03:32N 58°58' W 003°18'0 0.0
2016-Aug-18 02:29N 58°58' W 003°18'0 0.0
2016-Aug-18 01:32N 58°58' W 003°18'0 0.0
2016-Aug-18 00:29N 58°58' W 003°18'0 0.0
2016-Aug-17 23:32N 58°58' W 003°18'0 0.0
2016-Aug-17 22:32N 58°58' W 003°18'0 0.0
2016-Aug-17 21:32N 58°58' W 003°18'0 0.0
2016-Aug-17 20:32N 58°58' W 003°18'0 0.0
2016-Aug-17 19:32N 58°58' W 003°18'0 0.0
2016-Aug-17 18:32N 58°58' W 003°18'0 0.0
2016-Aug-17 17:32N 58°58' W 003°18'0 0.0
2016-Aug-17 16:32N 58°58' W 003°18'0 0.0
2016-Aug-17 15:32N 58°58' W 003°18'0 0.0
2016-Aug-17 14:33N 58°58' W 003°18'8 8.3
2016-Aug-17 13:33N 58°52' W 003°05'1010.1
2016-Aug-17 12:34N 58°43' W 003°01'6 6.0
2016-Aug-17 11:33N 58°38' W 002°53'2 2.1
2016-Aug-17 10:33N 58°36' W 002°56'2 2.0
2016-Aug-17 09:33N 58°38' W 002°53'3 2.6
2016-Aug-17 08:33N 58°35' W 002°53'5 5.2
2016-Aug-17 07:33N 58°30' W 002°57'23 2.6
2016-Aug-16 22:33N 58°26' W 002°13'8 7.8
2016-Aug-16 21:31N 58°24' W 002°28'17 5.0
2016-Aug-16 18:12N 58°34' W 002°02'12 7.1
2016-Aug-16 16:33N 58°31' W 002°24'6 5.7
2016-Aug-16 15:33N 58°29' W 002°34'3 3.5
2016-Aug-16 14:33N 58°30' W 002°28'  
Track history (hours):
 
Tides and Currents Weather Stations Pressure Air Temp Water Temp Dewpoint Dewpoint Depression Visibility Wind Speed Wind Dir Waves Ship Positions

Falken (Sweden)

Last reported at 2016-Aug-23 17:10 UTC. Time now 2016-Aug-26 23:23 UTC.
Position N 51°30' W 000°01'.

Length 40 m; draft 4.2 m.

Type: Sailing vessel. MMSI: 265070000.

Date/timePositionNaut miles runAvg speedWind from/ knotsBaromVisibWave heightAir tempDewpointWater temp
2016-Aug-23 17:10N 51°30' W 000°01'0 0.6
2016-Aug-23 16:33N 51°30' W 000°01'4 4.2
2016-Aug-23 15:34N 51°31' E 000°06'7 6.9
2016-Aug-23 14:34N 51°28' E 000°16'4 4.4
2016-Aug-23 13:34N 51°27' E 000°23'3 2.6
2016-Aug-23 12:34N 51°28' E 000°27'3 2.6
2016-Aug-23 11:34N 51°30' E 000°30'4 3.6
2016-Aug-23 10:33N 51°30' E 000°36'4 4.4
2016-Aug-23 09:34N 51°30' E 000°43'5 5.3
2016-Aug-23 08:33N 51°29' E 000°51'5 4.9
2016-Aug-23 07:34N 51°29' E 000°59'5 4.6
2016-Aug-23 06:34N 51°30' E 001°06'5 4.5
2016-Aug-23 05:34N 51°29' E 001°13'4 4.4
2016-Aug-23 04:33N 51°29' E 001°20'4 4.5
2016-Aug-23 03:33N 51°30' E 001°27'2 2.0
2016-Aug-23 02:34N 51°31' E 001°30'8 7.7
2016-Aug-23 01:34N 51°35' E 001°40'10 9.5
2016-Aug-23 00:34N 51°44' E 001°44'1110.9
2016-Aug-22 23:34N 51°55' E 001°44'1111.0
2016-Aug-22 22:34N 52°06' E 001°51'149 5.7
2016-Aug-21 20:30N 54°30' E 000°49'24 5.7
2016-Aug-21 16:22N 54°49' E 000°25'5 4.1
2016-Aug-21 15:11N 54°53' E 000°20'158 6.7
2016-Aug-20 15:30N 57°09' W 002°03'1 0.1
2016-Aug-20 02:34N 57°09' W 002°05'0 0.0
2016-Aug-20 01:34N 57°09' W 002°05'0 0.0
2016-Aug-19 09:23N 57°09' W 002°05'5 2.5
2016-Aug-19 07:32N 57°11' W 001°57'1 0.8
2016-Aug-19 06:30N 57°11' W 001°56'4 2.0
2016-Aug-19 04:32N 57°14' W 001°52'2 2.1
2016-Aug-19 03:33N 57°16' W 001°49'13 2.9
2016-Aug-18 23:08N 57°27' W 001°36'3 4.7
2016-Aug-18 22:33N 57°30' W 001°37'4 4.5
2016-Aug-18 21:34N 57°34' W 001°39'15 4.6
2016-Aug-18 18:23N 57°46' W 001°53'50 5.4
2016-Aug-18 09:07N 58°29' W 002°44'5 9.6
2016-Aug-18 08:34N 58°34' W 002°48'1312.8
2016-Aug-18 07:34N 58°45' W 003°01'9 9.0
2016-Aug-18 06:33N 58°53' W 003°07'7 7.3
2016-Aug-18 05:33N 58°58' W 003°18'0 0.0
2016-Aug-18 04:32N 58°58' W 003°18'0 0.0
2016-Aug-18 03:32N 58°58' W 003°18'0 0.0
2016-Aug-18 02:29N 58°58' W 003°18'0 0.0
2016-Aug-18 01:32N 58°58' W 003°18'0 0.0
2016-Aug-18 00:29N 58°58' W 003°18'0 0.0
2016-Aug-17 23:32N 58°58' W 003°18'0 0.0
2016-Aug-17 22:32N 58°58' W 003°18'0 0.0
2016-Aug-17 21:32N 58°58' W 003°18'0 0.0
2016-Aug-17 20:32N 58°58' W 003°18'0 0.0
2016-Aug-17 19:32N 58°58' W 003°18'0 0.0
2016-Aug-17 18:32N 58°58' W 003°18'0 0.0
2016-Aug-17 17:32N 58°58' W 003°18'0 0.0
2016-Aug-17 16:32N 58°58' W 003°18'0 0.0
2016-Aug-17 15:32N 58°58' W 003°18'0 0.0
2016-Aug-17 14:33N 58°58' W 003°18'8 8.3
2016-Aug-17 13:33N 58°52' W 003°05'1010.1
2016-Aug-17 12:34N 58°43' W 003°01'6 6.0
2016-Aug-17 11:33N 58°38' W 002°53'2 2.1
2016-Aug-17 10:33N 58°36' W 002°56'2 2.0
2016-Aug-17 09:33N 58°38' W 002°53'3 2.6
2016-Aug-17 08:33N 58°35' W 002°53'5 5.2
2016-Aug-17 07:33N 58°30' W 002°57'23 2.6
2016-Aug-16 22:33N 58°26' W 002°13'8 7.8
2016-Aug-16 21:31N 58°24' W 002°28'17 5.0
2016-Aug-16 18:12N 58°34' W 002°02'12 7.1
2016-Aug-16 16:33N 58°31' W 002°24'6 5.7
2016-Aug-16 15:33N 58°29' W 002°34'3 3.5
2016-Aug-16 14:33N 58°30' W 002°28'  

Dump ship's entire track history